sensor_id;sensor_type;location;lat;lon;timestamp;P1;durP1;ratioP1;P2;durP2;ratioP2
72408;SDS011;60402;48.082;11.628;2023-07-29T00:01:09;4.07;;;1.55;;
72408;SDS011;60402;48.082;11.628;2023-07-29T00:03:54;4.18;;;1.63;;
72408;SDS011;60402;48.082;11.628;2023-07-29T00:06:40;3.90;;;1.45;;
72408;SDS011;60402;48.082;11.628;2023-07-29T00:09:26;4.75;;;1.85;;
72408;SDS011;60402;48.082;11.628;2023-07-29T00:12:11;6.53;;;1.70;;
72408;SDS011;60402;48.082;11.628;2023-07-29T00:14:57;6.00;;;1.83;;
72408;SDS011;60402;48.082;11.628;2023-07-29T00:17:43;4.90;;;1.70;;
72408;SDS011;60402;48.082;11.628;2023-07-29T00:20:28;5.28;;;1.60;;
72408;SDS011;60402;48.082;11.628;2023-07-29T00:23:14;5.75;;;1.70;;
72408;SDS011;60402;48.082;11.628;2023-07-29T00:25:59;4.32;;;1.60;;
72408;SDS011;60402;48.082;11.628;2023-07-29T00:28:45;5.13;;;1.52;;
72408;SDS011;60402;48.082;11.628;2023-07-29T00:31:31;4.20;;;1.83;;
72408;SDS011;60402;48.082;11.628;2023-07-29T00:34:16;4.00;;;1.70;;
72408;SDS011;60402;48.082;11.628;2023-07-29T00:39:51;4.28;;;1.70;;
72408;SDS011;60402;48.082;11.628;2023-07-29T00:42:36;4.47;;;2.05;;
72408;SDS011;60402;48.082;11.628;2023-07-29T00:45:23;3.90;;;1.60;;
72408;SDS011;60402;48.082;11.628;2023-07-29T00:48:10;5.30;;;1.73;;
72408;SDS011;60402;48.082;11.628;2023-07-29T00:50:56;4.00;;;1.60;;
72408;SDS011;60402;48.082;11.628;2023-07-29T00:53:42;5.10;;;1.67;;
72408;SDS011;60402;48.082;11.628;2023-07-29T00:56:27;4.70;;;1.83;;
72408;SDS011;60402;48.082;11.628;2023-07-29T00:59:13;5.10;;;1.63;;
72408;SDS011;60402;48.082;11.628;2023-07-29T01:01:59;3.97;;;1.55;;
72408;SDS011;60402;48.082;11.628;2023-07-29T01:04:45;3.72;;;1.23;;
72408;SDS011;60402;48.082;11.628;2023-07-29T01:07:33;4.57;;;1.50;;
72408;SDS011;60402;48.082;11.628;2023-07-29T01:10:46;3.70;;;1.27;;
72408;SDS011;60402;48.082;11.628;2023-07-29T01:13:50;3.47;;;1.48;;
72408;SDS011;60402;48.082;11.628;2023-07-29T01:16:42;4.75;;;1.50;;
72408;SDS011;60402;48.082;11.628;2023-07-29T01:22:40;4.45;;;1.63;;
72408;SDS011;60402;48.082;11.628;2023-07-29T01:25:26;5.53;;;1.60;;
72408;SDS011;60402;48.082;11.628;2023-07-29T01:28:12;4.15;;;1.42;;
72408;SDS011;60402;48.082;11.628;2023-07-29T01:31:01;4.07;;;1.27;;
72408;SDS011;60402;48.082;11.628;2023-07-29T01:36:48;4.15;;;1.50;;
72408;SDS011;60402;48.082;11.628;2023-07-29T01:39:36;4.30;;;1.55;;
72408;SDS011;60402;48.082;11.628;2023-07-29T01:42:23;4.65;;;1.50;;
72408;SDS011;60402;48.082;11.628;2023-07-29T01:45:09;4.63;;;1.80;;
72408;SDS011;60402;48.082;11.628;2023-07-29T01:47:55;4.53;;;1.70;;
72408;SDS011;60402;48.082;11.628;2023-07-29T01:50:41;4.05;;;1.50;;
72408;SDS011;60402;48.082;11.628;2023-07-29T01:53:26;4.95;;;1.55;;
72408;SDS011;60402;48.082;11.628;2023-07-29T01:56:12;4.43;;;1.48;;
72408;SDS011;60402;48.082;11.628;2023-07-29T01:58:57;5.97;;;1.80;;
72408;SDS011;60402;48.082;11.628;2023-07-29T02:01:43;5.13;;;1.92;;
72408;SDS011;60402;48.082;11.628;2023-07-29T02:04:29;6.18;;;1.73;;
72408;SDS011;60402;48.082;11.628;2023-07-29T02:07:15;5.97;;;1.65;;
72408;SDS011;60402;48.082;11.628;2023-07-29T02:10:00;3.85;;;1.73;;
72408;SDS011;60402;48.082;11.628;2023-07-29T02:12:46;5.03;;;1.70;;
72408;SDS011;60402;48.082;11.628;2023-07-29T02:15:31;5.03;;;1.67;;
72408;SDS011;60402;48.082;11.628;2023-07-29T02:18:17;5.45;;;1.88;;
72408;SDS011;60402;48.082;11.628;2023-07-29T02:21:03;4.30;;;1.40;;
72408;SDS011;60402;48.082;11.628;2023-07-29T02:23:48;5.85;;;1.75;;
72408;SDS011;60402;48.082;11.628;2023-07-29T02:26:34;5.05;;;1.88;;
72408;SDS011;60402;48.082;11.628;2023-07-29T02:29:20;3.70;;;1.52;;
72408;SDS011;60402;48.082;11.628;2023-07-29T02:32:06;4.72;;;1.50;;
72408;SDS011;60402;48.082;11.628;2023-07-29T02:34:52;4.85;;;1.60;;
72408;SDS011;60402;48.082;11.628;2023-07-29T02:37:38;4.32;;;1.48;;
72408;SDS011;60402;48.082;11.628;2023-07-29T02:40:23;4.35;;;1.30;;
72408;SDS011;60402;48.082;11.628;2023-07-29T02:43:11;4.35;;;1.50;;
72408;SDS011;60402;48.082;11.628;2023-07-29T02:45:57;3.55;;;1.45;;
72408;SDS011;60402;48.082;11.628;2023-07-29T02:48:44;3.90;;;1.70;;
72408;SDS011;60402;48.082;11.628;2023-07-29T02:51:30;2.72;;;1.35;;
72408;SDS011;60402;48.082;11.628;2023-07-29T02:54:16;4.95;;;1.80;;
72408;SDS011;60402;48.082;11.628;2023-07-29T02:57:01;4.70;;;1.40;;
72408;SDS011;60402;48.082;11.628;2023-07-29T02:59:47;5.20;;;1.42;;
72408;SDS011;60402;48.082;11.628;2023-07-29T03:02:33;3.90;;;1.50;;
72408;SDS011;60402;48.082;11.628;2023-07-29T03:05:18;4.53;;;1.52;;
72408;SDS011;60402;48.082;11.628;2023-07-29T03:08:04;4.95;;;1.73;;
72408;SDS011;60402;48.082;11.628;2023-07-29T03:10:49;3.90;;;1.50;;
72408;SDS011;60402;48.082;11.628;2023-07-29T03:13:35;4.18;;;1.58;;
72408;SDS011;60402;48.082;11.628;2023-07-29T03:16:22;5.43;;;1.45;;
72408;SDS011;60402;48.082;11.628;2023-07-29T03:19:08;3.92;;;1.50;;
72408;SDS011;60402;48.082;11.628;2023-07-29T03:21:53;5.05;;;1.45;;
72408;SDS011;60402;48.082;11.628;2023-07-29T03:24:39;4.35;;;1.67;;
72408;SDS011;60402;48.082;11.628;2023-07-29T03:27:25;4.50;;;1.90;;
72408;SDS011;60402;48.082;11.628;2023-07-29T03:30:11;5.30;;;1.77;;
72408;SDS011;60402;48.082;11.628;2023-07-29T03:32:56;4.05;;;1.60;;
72408;SDS011;60402;48.082;11.628;2023-07-29T03:35:42;5.75;;;1.67;;
72408;SDS011;60402;48.082;11.628;2023-07-29T03:38:30;4.35;;;1.55;;
72408;SDS011;60402;48.082;11.628;2023-07-29T03:41:15;4.10;;;1.80;;
72408;SDS011;60402;48.082;11.628;2023-07-29T03:44:01;3.83;;;1.50;;
72408;SDS011;60402;48.082;11.628;2023-07-29T03:46:46;12.88;;;2.47;;
72408;SDS011;60402;48.082;11.628;2023-07-29T03:49:32;5.20;;;1.63;;
72408;SDS011;60402;48.082;11.628;2023-07-29T03:52:18;3.65;;;1.48;;
72408;SDS011;60402;48.082;11.628;2023-07-29T03:55:03;4.40;;;1.75;;
72408;SDS011;60402;48.082;11.628;2023-07-29T03:57:49;6.05;;;1.67;;
72408;SDS011;60402;48.082;11.628;2023-07-29T04:00:35;3.85;;;1.40;;
72408;SDS011;60402;48.082;11.628;2023-07-29T04:03:21;3.58;;;1.40;;
72408;SDS011;60402;48.082;11.628;2023-07-29T04:06:06;5.65;;;1.55;;
72408;SDS011;60402;48.082;11.628;2023-07-29T04:08:52;4.45;;;1.67;;
72408;SDS011;60402;48.082;11.628;2023-07-29T04:11:38;6.30;;;1.67;;
72408;SDS011;60402;48.082;11.628;2023-07-29T04:14:24;3.58;;;1.40;;
72408;SDS011;60402;48.082;11.628;2023-07-29T04:17:09;3.67;;;1.40;;
72408;SDS011;60402;48.082;11.628;2023-07-29T04:19:55;3.85;;;1.50;;
72408;SDS011;60402;48.082;11.628;2023-07-29T04:22:41;4.32;;;1.40;;
72408;SDS011;60402;48.082;11.628;2023-07-29T04:25:27;4.07;;;1.45;;
72408;SDS011;60402;48.082;11.628;2023-07-29T04:28:13;5.13;;;1.65;;
72408;SDS011;60402;48.082;11.628;2023-07-29T04:30:58;3.30;;;1.25;;
72408;SDS011;60402;48.082;11.628;2023-07-29T04:33:45;3.92;;;1.45;;
72408;SDS011;60402;48.082;11.628;2023-07-29T04:36:30;3.70;;;1.48;;
72408;SDS011;60402;48.082;11.628;2023-07-29T04:39:16;3.55;;;1.38;;
72408;SDS011;60402;48.082;11.628;2023-07-29T04:42:02;3.75;;;1.40;;
72408;SDS011;60402;48.082;11.628;2023-07-29T04:44:47;4.78;;;1.60;;
72408;SDS011;60402;48.082;11.628;2023-07-29T04:47:33;3.97;;;1.60;;
72408;SDS011;60402;48.082;11.628;2023-07-29T04:50:19;6.22;;;1.42;;
72408;SDS011;60402;48.082;11.628;2023-07-29T04:53:04;3.83;;;1.33;;
72408;SDS011;60402;48.082;11.628;2023-07-29T04:55:50;3.08;;;1.38;;
72408;SDS011;60402;48.082;11.628;2023-07-29T04:58:35;4.10;;;1.30;;
72408;SDS011;60402;48.082;11.628;2023-07-29T05:01:21;3.17;;;1.30;;
72408;SDS011;60402;48.082;11.628;2023-07-29T05:04:07;3.40;;;1.27;;
72408;SDS011;60402;48.082;11.628;2023-07-29T05:06:52;2.90;;;1.33;;
72408;SDS011;60402;48.082;11.628;2023-07-29T05:09:38;3.40;;;1.40;;
72408;SDS011;60402;48.082;11.628;2023-07-29T05:12:24;3.42;;;1.30;;
72408;SDS011;60402;48.082;11.628;2023-07-29T05:15:09;3.85;;;1.52;;
72408;SDS011;60402;48.082;11.628;2023-07-29T05:17:55;3.42;;;1.45;;
72408;SDS011;60402;48.082;11.628;2023-07-29T05:20:41;3.50;;;1.20;;
72408;SDS011;60402;48.082;11.628;2023-07-29T05:23:27;4.00;;;1.40;;
72408;SDS011;60402;48.082;11.628;2023-07-29T05:26:13;2.80;;;1.20;;
72408;SDS011;60402;48.082;11.628;2023-07-29T05:28:58;3.30;;;1.25;;
72408;SDS011;60402;48.082;11.628;2023-07-29T05:31:44;3.42;;;1.40;;
72408;SDS011;60402;48.082;11.628;2023-07-29T05:34:30;3.63;;;1.38;;
72408;SDS011;60402;48.082;11.628;2023-07-29T05:37:15;3.70;;;1.30;;
72408;SDS011;60402;48.082;11.628;2023-07-29T05:40:01;3.58;;;1.30;;
72408;SDS011;60402;48.082;11.628;2023-07-29T05:42:47;2.90;;;1.10;;
72408;SDS011;60402;48.082;11.628;2023-07-29T05:45:33;3.50;;;1.27;;
72408;SDS011;60402;48.082;11.628;2023-07-29T05:48:19;2.08;;;1.08;;
72408;SDS011;60402;48.082;11.628;2023-07-29T05:51:05;2.65;;;1.08;;
72408;SDS011;60402;48.082;11.628;2023-07-29T05:53:50;1.90;;;0.90;;
72408;SDS011;60402;48.082;11.628;2023-07-29T05:56:36;2.65;;;1.00;;
72408;SDS011;60402;48.082;11.628;2023-07-29T05:59:22;3.10;;;1.00;;
72408;SDS011;60402;48.082;11.628;2023-07-29T06:02:07;2.33;;;1.02;;
72408;SDS011;60402;48.082;11.628;2023-07-29T06:04:53;2.70;;;1.08;;
72408;SDS011;60402;48.082;11.628;2023-07-29T06:07:39;3.08;;;1.23;;
72408;SDS011;60402;48.082;11.628;2023-07-29T06:10:29;2.53;;;1.00;;
72408;SDS011;60402;48.082;11.628;2023-07-29T06:13:14;4.45;;;1.27;;
72408;SDS011;60402;48.082;11.628;2023-07-29T06:16:00;3.38;;;0.90;;
72408;SDS011;60402;48.082;11.628;2023-07-29T06:18:46;2.72;;;1.00;;
72408;SDS011;60402;48.082;11.628;2023-07-29T06:21:31;2.65;;;0.90;;
72408;SDS011;60402;48.082;11.628;2023-07-29T06:24:17;2.35;;;1.20;;
72408;SDS011;60402;48.082;11.628;2023-07-29T06:27:03;3.22;;;1.10;;
72408;SDS011;60402;48.082;11.628;2023-07-29T06:29:48;2.13;;;1.00;;
72408;SDS011;60402;48.082;11.628;2023-07-29T06:32:34;3.05;;;1.10;;
72408;SDS011;60402;48.082;11.628;2023-07-29T06:35:20;2.28;;;1.00;;
72408;SDS011;60402;48.082;11.628;2023-07-29T06:38:05;2.92;;;1.17;;
72408;SDS011;60402;48.082;11.628;2023-07-29T06:40:51;2.03;;;0.93;;
72408;SDS011;60402;48.082;11.628;2023-07-29T06:43:37;3.22;;;1.08;;
72408;SDS011;60402;48.082;11.628;2023-07-29T06:46:23;2.63;;;1.00;;
72408;SDS011;60402;48.082;11.628;2023-07-29T06:49:09;2.95;;;1.10;;
72408;SDS011;60402;48.082;11.628;2023-07-29T06:51:54;2.55;;;0.90;;
72408;SDS011;60402;48.082;11.628;2023-07-29T06:54:40;1.80;;;1.00;;
72408;SDS011;60402;48.082;11.628;2023-07-29T06:57:26;2.42;;;1.10;;
72408;SDS011;60402;48.082;11.628;2023-07-29T07:00:11;2.58;;;1.10;;
72408;SDS011;60402;48.082;11.628;2023-07-29T07:02:57;2.83;;;1.20;;
72408;SDS011;60402;48.082;11.628;2023-07-29T07:05:43;3.22;;;1.17;;
72408;SDS011;60402;48.082;11.628;2023-07-29T07:08:28;2.65;;;1.25;;
72408;SDS011;60402;48.082;11.628;2023-07-29T07:11:16;3.75;;;1.48;;
72408;SDS011;60402;48.082;11.628;2023-07-29T07:14:01;4.60;;;1.42;;
72408;SDS011;60402;48.082;11.628;2023-07-29T07:16:47;3.55;;;1.25;;
72408;SDS011;60402;48.082;11.628;2023-07-29T07:19:33;5.32;;;1.45;;
72408;SDS011;60402;48.082;11.628;2023-07-29T07:22:18;3.60;;;1.23;;
72408;SDS011;60402;48.082;11.628;2023-07-29T07:25:04;3.67;;;1.45;;
72408;SDS011;60402;48.082;11.628;2023-07-29T07:27:50;5.18;;;1.33;;
72408;SDS011;60402;48.082;11.628;2023-07-29T07:30:39;3.78;;;1.10;;
72408;SDS011;60402;48.082;11.628;2023-07-29T07:33:26;4.43;;;1.25;;
72408;SDS011;60402;48.082;11.628;2023-07-29T07:36:12;4.72;;;1.33;;
72408;SDS011;60402;48.082;11.628;2023-07-29T07:38:57;3.90;;;1.42;;
72408;SDS011;60402;48.082;11.628;2023-07-29T07:41:44;5.43;;;1.60;;
72408;SDS011;60402;48.082;11.628;2023-07-29T07:44:29;3.80;;;1.42;;
72408;SDS011;60402;48.082;11.628;2023-07-29T07:47:15;3.92;;;1.20;;
72408;SDS011;60402;48.082;11.628;2023-07-29T07:50:00;4.05;;;1.42;;
72408;SDS011;60402;48.082;11.628;2023-07-29T07:52:46;3.45;;;1.23;;
72408;SDS011;60402;48.082;11.628;2023-07-29T07:55:32;3.90;;;1.50;;
72408;SDS011;60402;48.082;11.628;2023-07-29T07:58:17;4.82;;;1.50;;
72408;SDS011;60402;48.082;11.628;2023-07-29T08:01:04;4.80;;;1.77;;
72408;SDS011;60402;48.082;11.628;2023-07-29T08:03:50;4.47;;;1.60;;
72408;SDS011;60402;48.082;11.628;2023-07-29T08:06:36;3.97;;;1.50;;
72408;SDS011;60402;48.082;11.628;2023-07-29T08:09:22;6.30;;;1.80;;
72408;SDS011;60402;48.082;11.628;2023-07-29T08:12:07;5.78;;;1.88;;
72408;SDS011;60402;48.082;11.628;2023-07-29T08:14:53;5.18;;;1.70;;
72408;SDS011;60402;48.082;11.628;2023-07-29T08:17:39;4.30;;;1.80;;
72408;SDS011;60402;48.082;11.628;2023-07-29T08:20:24;3.75;;;1.63;;
72408;SDS011;60402;48.082;11.628;2023-07-29T08:23:10;6.45;;;1.85;;
72408;SDS011;60402;48.082;11.628;2023-07-29T08:26:00;4.53;;;1.80;;
72408;SDS011;60402;48.082;11.628;2023-07-29T08:28:48;4.97;;;1.65;;
72408;SDS011;60402;48.082;11.628;2023-07-29T08:31:33;5.28;;;1.75;;
72408;SDS011;60402;48.082;11.628;2023-07-29T08:34:19;4.97;;;1.70;;
72408;SDS011;60402;48.082;11.628;2023-07-29T08:37:05;4.18;;;1.98;;
72408;SDS011;60402;48.082;11.628;2023-07-29T08:39:51;3.78;;;1.52;;
72408;SDS011;60402;48.082;11.628;2023-07-29T08:42:39;4.88;;;1.70;;
72408;SDS011;60402;48.082;11.628;2023-07-29T08:45:27;5.63;;;1.98;;
72408;SDS011;60402;48.082;11.628;2023-07-29T08:48:15;3.80;;;1.80;;
72408;SDS011;60402;48.082;11.628;2023-07-29T08:51:09;3.75;;;1.42;;
72408;SDS011;60402;48.082;11.628;2023-07-29T08:53:56;4.40;;;1.88;;
72408;SDS011;60402;48.082;11.628;2023-07-29T08:56:42;4.70;;;1.98;;
72408;SDS011;60402;48.082;11.628;2023-07-29T08:59:28;3.42;;;1.55;;
72408;SDS011;60402;48.082;11.628;2023-07-29T09:02:14;4.13;;;1.63;;
72408;SDS011;60402;48.082;11.628;2023-07-29T09:05:00;4.10;;;1.80;;
72408;SDS011;60402;48.082;11.628;2023-07-29T09:07:47;4.70;;;1.90;;
72408;SDS011;60402;48.082;11.628;2023-07-29T09:10:35;4.40;;;1.73;;
72408;SDS011;60402;48.082;11.628;2023-07-29T09:13:22;4.00;;;1.70;;
72408;SDS011;60402;48.082;11.628;2023-07-29T09:16:07;3.95;;;1.65;;
72408;SDS011;60402;48.082;11.628;2023-07-29T09:18:54;4.25;;;1.80;;
72408;SDS011;60402;48.082;11.628;2023-07-29T09:21:40;4.30;;;1.67;;
72408;SDS011;60402;48.082;11.628;2023-07-29T09:24:26;6.13;;;1.75;;
72408;SDS011;60402;48.082;11.628;2023-07-29T09:27:27;4.13;;;1.60;;
72408;SDS011;60402;48.082;11.628;2023-07-29T09:30:16;5.05;;;1.63;;
72408;SDS011;60402;48.082;11.628;2023-07-29T09:33:02;6.47;;;1.90;;
72408;SDS011;60402;48.082;11.628;2023-07-29T09:35:48;3.65;;;1.40;;
72408;SDS011;60402;48.082;11.628;2023-07-29T09:38:34;3.92;;;1.55;;
72408;SDS011;60402;48.082;11.628;2023-07-29T09:41:24;4.50;;;1.73;;
72408;SDS011;60402;48.082;11.628;2023-07-29T09:44:11;4.63;;;1.98;;
72408;SDS011;60402;48.082;11.628;2023-07-29T09:46:57;3.03;;;1.38;;
72408;SDS011;60402;48.082;11.628;2023-07-29T09:49:43;4.03;;;1.63;;
72408;SDS011;60402;48.082;11.628;2023-07-29T09:52:29;3.72;;;1.55;;
72408;SDS011;60402;48.082;11.628;2023-07-29T09:55:17;3.58;;;1.52;;
72408;SDS011;60402;48.082;11.628;2023-07-29T09:58:04;3.92;;;1.60;;
72408;SDS011;60402;48.082;11.628;2023-07-29T10:00:53;3.67;;;1.73;;
72408;SDS011;60402;48.082;11.628;2023-07-29T10:03:39;4.60;;;2.00;;
72408;SDS011;60402;48.082;11.628;2023-07-29T10:06:25;7.40;;;1.80;;
72408;SDS011;60402;48.082;11.628;2023-07-29T10:09:11;3.38;;;1.50;;
72408;SDS011;60402;48.082;11.628;2023-07-29T10:11:58;5.15;;;2.17;;
72408;SDS011;60402;48.082;11.628;2023-07-29T10:14:44;4.90;;;1.88;;
72408;SDS011;60402;48.082;11.628;2023-07-29T10:17:33;4.00;;;1.73;;
72408;SDS011;60402;48.082;11.628;2023-07-29T10:20:21;4.38;;;1.95;;
72408;SDS011;60402;48.082;11.628;2023-07-29T10:23:06;4.30;;;1.80;;
72408;SDS011;60402;48.082;11.628;2023-07-29T10:25:57;3.97;;;1.80;;
72408;SDS011;60402;48.082;11.628;2023-07-29T10:28:49;5.25;;;1.83;;
72408;SDS011;60402;48.082;11.628;2023-07-29T10:31:37;5.10;;;2.03;;
72408;SDS011;60402;48.082;11.628;2023-07-29T10:34:25;4.30;;;1.92;;
72408;SDS011;60402;48.082;11.628;2023-07-29T10:37:12;3.53;;;1.80;;
72408;SDS011;60402;48.082;11.628;2023-07-29T10:39:57;4.35;;;2.00;;
72408;SDS011;60402;48.082;11.628;2023-07-29T10:42:59;5.22;;;1.83;;
72408;SDS011;60402;48.082;11.628;2023-07-29T10:45:51;4.38;;;2.40;;
72408;SDS011;60402;48.082;11.628;2023-07-29T10:48:41;5.18;;;2.10;;
72408;SDS011;60402;48.082;11.628;2023-07-29T10:51:28;3.90;;;1.90;;
72408;SDS011;60402;48.082;11.628;2023-07-29T10:54:15;3.92;;;1.80;;
72408;SDS011;60402;48.082;11.628;2023-07-29T10:57:01;3.97;;;2.10;;
72408;SDS011;60402;48.082;11.628;2023-07-29T10:59:54;3.85;;;1.77;;
72408;SDS011;60402;48.082;11.628;2023-07-29T11:02:41;4.43;;;1.83;;
72408;SDS011;60402;48.082;11.628;2023-07-29T11:05:27;5.72;;;2.33;;
72408;SDS011;60402;48.082;11.628;2023-07-29T11:08:28;4.20;;;1.80;;
72408;SDS011;60402;48.082;11.628;2023-07-29T11:11:14;3.80;;;1.65;;
72408;SDS011;60402;48.082;11.628;2023-07-29T11:14:00;4.68;;;1.73;;
72408;SDS011;60402;48.082;11.628;2023-07-29T11:16:47;4.18;;;1.75;;
72408;SDS011;60402;48.082;11.628;2023-07-29T11:19:33;6.50;;;2.25;;
72408;SDS011;60402;48.082;11.628;2023-07-29T11:22:20;5.95;;;2.00;;
72408;SDS011;60402;48.082;11.628;2023-07-29T11:25:10;3.78;;;1.73;;
72408;SDS011;60402;48.082;11.628;2023-07-29T11:27:58;4.70;;;2.10;;
72408;SDS011;60402;48.082;11.628;2023-07-29T11:30:44;4.88;;;1.90;;
72408;SDS011;60402;48.082;11.628;2023-07-29T11:33:30;4.07;;;1.85;;
72408;SDS011;60402;48.082;11.628;2023-07-29T11:36:19;3.33;;;1.65;;
72408;SDS011;60402;48.082;11.628;2023-07-29T11:39:11;2.63;;;1.20;;
72408;SDS011;60402;48.082;11.628;2023-07-29T11:41:57;3.70;;;1.20;;
72408;SDS011;60402;48.082;11.628;2023-07-29T11:44:42;4.43;;;1.45;;
72408;SDS011;60402;48.082;11.628;2023-07-29T11:47:28;2.42;;;1.10;;
72408;SDS011;60402;48.082;11.628;2023-07-29T11:50:14;3.33;;;1.33;;
72408;SDS011;60402;48.082;11.628;2023-07-29T11:53:00;3.13;;;1.30;;
72408;SDS011;60402;48.082;11.628;2023-07-29T11:55:49;4.10;;;1.30;;
72408;SDS011;60402;48.082;11.628;2023-07-29T11:58:37;6.38;;;1.83;;
72408;SDS011;60402;48.082;11.628;2023-07-29T12:01:23;4.32;;;1.48;;
72408;SDS011;60402;48.082;11.628;2023-07-29T12:04:09;4.05;;;1.42;;
72408;SDS011;60402;48.082;11.628;2023-07-29T12:06:55;3.65;;;1.48;;
72408;SDS011;60402;48.082;11.628;2023-07-29T12:09:41;3.92;;;1.55;;
72408;SDS011;60402;48.082;11.628;2023-07-29T12:12:28;2.90;;;1.50;;
72408;SDS011;60402;48.082;11.628;2023-07-29T12:15:13;6.63;;;1.58;;
72408;SDS011;60402;48.082;11.628;2023-07-29T12:17:59;3.90;;;1.60;;
72408;SDS011;60402;48.082;11.628;2023-07-29T12:20:45;3.53;;;1.55;;
72408;SDS011;60402;48.082;11.628;2023-07-29T12:23:30;4.10;;;1.55;;
72408;SDS011;60402;48.082;11.628;2023-07-29T12:26:16;4.70;;;1.58;;
72408;SDS011;60402;48.082;11.628;2023-07-29T12:29:15;4.72;;;1.73;;
72408;SDS011;60402;48.082;11.628;2023-07-29T12:32:02;4.82;;;1.95;;
72408;SDS011;60402;48.082;11.628;2023-07-29T12:34:49;4.00;;;1.50;;
72408;SDS011;60402;48.082;11.628;2023-07-29T12:37:34;5.63;;;1.52;;
72408;SDS011;60402;48.082;11.628;2023-07-29T12:40:21;4.57;;;1.60;;
72408;SDS011;60402;48.082;11.628;2023-07-29T12:43:08;4.00;;;1.65;;
72408;SDS011;60402;48.082;11.628;2023-07-29T12:45:54;4.18;;;1.77;;
72408;SDS011;60402;48.082;11.628;2023-07-29T12:48:39;3.85;;;1.88;;
72408;SDS011;60402;48.082;11.628;2023-07-29T12:51:25;4.38;;;1.60;;
72408;SDS011;60402;48.082;11.628;2023-07-29T12:54:11;4.00;;;1.70;;
72408;SDS011;60402;48.082;11.628;2023-07-29T12:56:57;4.70;;;1.80;;
72408;SDS011;60402;48.082;11.628;2023-07-29T12:59:42;4.28;;;1.60;;
72408;SDS011;60402;48.082;11.628;2023-07-29T13:02:28;4.35;;;1.80;;
72408;SDS011;60402;48.082;11.628;2023-07-29T13:05:13;3.65;;;1.70;;
72408;SDS011;60402;48.082;11.628;2023-07-29T13:07:59;5.25;;;2.13;;
72408;SDS011;60402;48.082;11.628;2023-07-29T13:10:45;4.88;;;1.83;;
72408;SDS011;60402;48.082;11.628;2023-07-29T13:13:31;4.25;;;1.55;;
72408;SDS011;60402;48.082;11.628;2023-07-29T13:16:17;3.00;;;1.50;;
72408;SDS011;60402;48.082;11.628;2023-07-29T13:19:02;3.88;;;1.80;;
72408;SDS011;60402;48.082;11.628;2023-07-29T13:21:48;7.47;;;1.95;;
72408;SDS011;60402;48.082;11.628;2023-07-29T13:24:34;9.43;;;2.20;;
72408;SDS011;60402;48.082;11.628;2023-07-29T13:27:19;5.10;;;2.30;;
72408;SDS011;60402;48.082;11.628;2023-07-29T13:30:05;4.93;;;1.98;;
72408;SDS011;60402;48.082;11.628;2023-07-29T13:32:51;5.18;;;1.80;;
72408;SDS011;60402;48.082;11.628;2023-07-29T13:35:37;5.78;;;1.83;;
72408;SDS011;60402;48.082;11.628;2023-07-29T13:38:23;4.28;;;1.67;;
72408;SDS011;60402;48.082;11.628;2023-07-29T13:41:08;4.35;;;1.73;;
72408;SDS011;60402;48.082;11.628;2023-07-29T13:43:54;3.58;;;1.65;;
72408;SDS011;60402;48.082;11.628;2023-07-29T13:46:40;4.68;;;2.05;;
72408;SDS011;60402;48.082;11.628;2023-07-29T13:49:25;4.78;;;1.90;;
72408;SDS011;60402;48.082;11.628;2023-07-29T13:52:11;5.22;;;1.92;;
72408;SDS011;60402;48.082;11.628;2023-07-29T13:54:57;5.22;;;1.88;;
72408;SDS011;60402;48.082;11.628;2023-07-29T13:57:43;5.65;;;2.00;;
72408;SDS011;60402;48.082;11.628;2023-07-29T14:00:28;5.65;;;2.20;;
72408;SDS011;60402;48.082;11.628;2023-07-29T14:03:14;6.30;;;2.10;;
72408;SDS011;60402;48.082;11.628;2023-07-29T14:06:00;5.00;;;1.98;;
72408;SDS011;60402;48.082;11.628;2023-07-29T14:08:47;5.47;;;2.30;;
72408;SDS011;60402;48.082;11.628;2023-07-29T14:11:33;4.55;;;1.95;;
72408;SDS011;60402;48.082;11.628;2023-07-29T14:14:18;4.43;;;2.08;;
72408;SDS011;60402;48.082;11.628;2023-07-29T14:17:04;4.22;;;1.85;;
72408;SDS011;60402;48.082;11.628;2023-07-29T14:19:50;5.43;;;1.90;;
72408;SDS011;60402;48.082;11.628;2023-07-29T14:22:36;4.78;;;2.10;;
72408;SDS011;60402;48.082;11.628;2023-07-29T14:25:21;5.45;;;2.08;;
72408;SDS011;60402;48.082;11.628;2023-07-29T14:28:07;4.47;;;2.00;;
72408;SDS011;60402;48.082;11.628;2023-07-29T14:30:53;3.17;;;1.67;;
72408;SDS011;60402;48.082;11.628;2023-07-29T14:33:38;5.30;;;2.00;;
72408;SDS011;60402;48.082;11.628;2023-07-29T14:36:24;6.80;;;2.10;;
72408;SDS011;60402;48.082;11.628;2023-07-29T14:39:10;5.05;;;2.05;;
72408;SDS011;60402;48.082;11.628;2023-07-29T14:41:55;5.40;;;2.03;;
72408;SDS011;60402;48.082;11.628;2023-07-29T14:44:41;5.35;;;1.75;;
72408;SDS011;60402;48.082;11.628;2023-07-29T14:47:27;4.00;;;1.48;;
72408;SDS011;60402;48.082;11.628;2023-07-29T14:50:12;4.03;;;1.80;;
72408;SDS011;60402;48.082;11.628;2023-07-29T14:52:58;4.13;;;1.70;;
72408;SDS011;60402;48.082;11.628;2023-07-29T14:55:44;4.68;;;1.90;;
72408;SDS011;60402;48.082;11.628;2023-07-29T14:58:29;4.47;;;1.83;;
72408;SDS011;60402;48.082;11.628;2023-07-29T15:01:15;7.00;;;2.05;;
72408;SDS011;60402;48.082;11.628;2023-07-29T15:04:01;4.47;;;1.95;;
72408;SDS011;60402;48.082;11.628;2023-07-29T15:06:46;6.63;;;2.03;;
72408;SDS011;60402;48.082;11.628;2023-07-29T15:09:32;4.28;;;1.80;;
72408;SDS011;60402;48.082;11.628;2023-07-29T15:12:18;5.22;;;1.83;;
72408;SDS011;60402;48.082;11.628;2023-07-29T15:15:07;4.78;;;2.17;;
72408;SDS011;60402;48.082;11.628;2023-07-29T15:17:53;4.25;;;1.95;;
72408;SDS011;60402;48.082;11.628;2023-07-29T15:20:39;4.93;;;2.10;;
72408;SDS011;60402;48.082;11.628;2023-07-29T15:23:24;5.05;;;2.38;;
72408;SDS011;60402;48.082;11.628;2023-07-29T15:26:10;5.07;;;2.00;;
72408;SDS011;60402;48.082;11.628;2023-07-29T15:28:55;6.50;;;2.88;;
72408;SDS011;60402;48.082;11.628;2023-07-29T15:31:43;4.30;;;1.88;;
72408;SDS011;60402;48.082;11.628;2023-07-29T15:34:28;4.93;;;2.10;;
72408;SDS011;60402;48.082;11.628;2023-07-29T15:37:17;4.53;;;1.85;;
72408;SDS011;60402;48.082;11.628;2023-07-29T15:40:02;5.38;;;1.80;;
72408;SDS011;60402;48.082;11.628;2023-07-29T15:42:49;5.32;;;2.03;;
72408;SDS011;60402;48.082;11.628;2023-07-29T15:45:35;4.97;;;2.20;;
72408;SDS011;60402;48.082;11.628;2023-07-29T15:48:23;5.05;;;1.88;;
72408;SDS011;60402;48.082;11.628;2023-07-29T15:51:12;5.15;;;2.20;;
72408;SDS011;60402;48.082;11.628;2023-07-29T15:53:58;4.82;;;2.10;;
72408;SDS011;60402;48.082;11.628;2023-07-29T15:56:44;5.50;;;2.20;;
72408;SDS011;60402;48.082;11.628;2023-07-29T15:59:30;6.15;;;2.20;;
72408;SDS011;60402;48.082;11.628;2023-07-29T16:02:15;4.32;;;1.90;;
72408;SDS011;60402;48.082;11.628;2023-07-29T16:05:01;5.15;;;1.98;;
72408;SDS011;60402;48.082;11.628;2023-07-29T16:07:47;5.10;;;1.90;;
72408;SDS011;60402;48.082;11.628;2023-07-29T16:10:32;5.03;;;2.00;;
72408;SDS011;60402;48.082;11.628;2023-07-29T16:13:18;4.40;;;2.00;;
72408;SDS011;60402;48.082;11.628;2023-07-29T16:16:04;5.38;;;2.20;;
72408;SDS011;60402;48.082;11.628;2023-07-29T16:18:50;4.80;;;2.05;;
72408;SDS011;60402;48.082;11.628;2023-07-29T16:21:36;4.28;;;2.08;;
72408;SDS011;60402;48.082;11.628;2023-07-29T16:24:21;3.75;;;1.95;;
72408;SDS011;60402;48.082;11.628;2023-07-29T16:27:07;4.60;;;2.20;;
72408;SDS011;60402;48.082;11.628;2023-07-29T16:29:52;4.85;;;2.10;;
72408;SDS011;60402;48.082;11.628;2023-07-29T16:32:38;4.97;;;2.63;;
72408;SDS011;60402;48.082;11.628;2023-07-29T16:35:24;4.53;;;2.17;;